Track Шустов Алексей

Time Latitude Longitude Accuracy (66% radius in meters) Altitude (meters) Speed (km/hour) Bearing (degrees) Battery (%) GPS flag
07:48:19 58.655604 49.680183 0 0 0 0 1 delete
07:48:18 58.655604 49.680183 0 0 0 0 1 delete
07:48:17 58.655604 49.680184 0 0 0 0 1 delete
07:48:16 58.655604 49.680185 0 0 0 0 1 delete
07:48:15 58.655605 49.680185 0 0 0 0 1 delete
07:48:14 58.655605 49.680187 0 0 0 0 1 delete
07:48:13 58.655605 49.680196 0 0 0 0 1 delete
07:48:12 58.655602 49.680208 0 0 0 0 1 delete
07:48:11 58.655599 49.680217 0 0 0 0 1 delete
07:48:10 58.655597 49.680219 0 0 0 0 1 delete
07:48:09 58.655596 49.680219 0 0 0 0 1 delete
07:48:08 58.655595 49.680219 0 0 0 0 1 delete
07:48:07 58.655595 49.680219 0 0 0 0 1 delete
07:48:06 58.655595 49.680220 0 0 0 0 1 delete
07:48:05 58.655595 49.680220 0 0 0 0 1 delete
07:48:04 58.655594 49.680219 0 0 0 0 1 delete
07:48:03 58.655591 49.680218 0 0 0 0 1 delete
07:48:02 58.655589 49.680217 0 0 0 0 1 delete
07:48:01 58.655588 49.680218 0 0 0 0 1 delete
07:48:00 58.655587 49.680219 0 0 0 0 1 delete
07:47:59 58.655586 49.680220 0 0 0 0 1 delete
07:47:58 58.655585 49.680219 0 0 0 0 1 delete
07:47:57 58.655585 49.680218 0 0 0 0 1 delete
07:47:56 58.655583 49.680217 0 0 0 0 1 delete
07:47:55 58.655583 49.680217 0 0 0 0 1 delete
07:47:54 58.655582 49.680218 0 0 0 0 1 delete
07:47:53 58.655582 49.680219 0 0 0 0 1 delete
07:47:52 58.655581 49.680219 0 0 0 0 1 delete
07:47:51 58.655580 49.680217 0 0 0 0 1 delete
07:47:50 58.655579 49.680218 0 0 0 0 1 delete
07:47:49 58.655578 49.680224 0 0 0 0 1 delete
07:47:48 58.655575 49.680239 0 0 0 0 1 delete
07:47:47 58.655570 49.680257 0 0 0 0 1 delete
07:47:46 58.655566 49.680274 0 0 0 0 1 delete
07:47:45 58.655564 49.680283 0 0 0 0 1 delete
07:47:44 58.655561 49.680288 0 0 0 0 1 delete
07:47:43 58.655559 49.680290 0 0 0 0 1 delete
07:47:42 58.655557 49.680284 0 0 0 0 1 delete
07:47:41 58.655563 49.680260 0 0 0 0 1 delete
07:47:40 58.655579 49.680210 0 0 0 0 1 delete
07:47:39 58.655601 49.680144 0 0 0 0 1 delete
07:47:38 58.655626 49.680061 0 0 0 0 1 delete
07:47:37 58.655648 49.679977 0 0 0 0 1 delete
07:47:36 58.655669 49.679893 0 0 0 0 1 delete
07:47:35 58.655686 49.679820 0 0 0 0 1 delete
07:47:34 58.655700 49.679749 0 0 0 0 1 delete
07:47:33 58.655713 49.679676 0 0 0 0 1 delete
07:47:32 58.655731 49.679603 0 0 0 0 1 delete
07:47:31 58.655754 49.679524 0 0 0 0 1 delete
07:47:30 58.655760 49.679434 0 0 0 0 1 delete